sensor_id;sensor_type;location;lat;lon;timestamp;pressure;altitude;pressure_sealevel;temperature;humidity
39177;BME280;24904;52.208;21.192;2023-02-23T00:01:28;101048.05;;;1.28;53.21
39177;BME280;24904;52.208;21.192;2023-02-23T00:06:34;101048.05;;;1.32;53.02
39177;BME280;24904;52.208;21.192;2023-02-23T00:11:39;101048.59;;;1.37;53.54
39177;BME280;24904;52.208;21.192;2023-02-23T00:16:45;101048.40;;;1.43;53.40
39177;BME280;24904;52.208;21.192;2023-02-23T00:21:50;101043.53;;;1.43;53.44
39177;BME280;24904;52.208;21.192;2023-02-23T00:26:55;101038.84;;;1.42;53.74
39177;BME280;24904;52.208;21.192;2023-02-23T00:32:00;101040.59;;;1.40;53.64
39177;BME280;24904;52.208;21.192;2023-02-23T00:37:05;101042.69;;;1.44;53.47
39177;BME280;24904;52.208;21.192;2023-02-23T00:42:11;101041.02;;;1.41;53.75
39177;BME280;24904;52.208;21.192;2023-02-23T00:47:16;101042.02;;;1.42;54.03
39177;BME280;24904;52.208;21.192;2023-02-23T00:52:21;101037.07;;;1.34;53.69
39177;BME280;24904;52.208;21.192;2023-02-23T00:57:26;101033.70;;;1.30;54.06
39177;BME280;24904;52.208;21.192;2023-02-23T01:02:31;101027.67;;;1.28;54.35
39177;BME280;24904;52.208;21.192;2023-02-23T01:07:36;101021.56;;;1.27;54.55
39177;BME280;24904;52.208;21.192;2023-02-23T01:25:13;101017.00;;;1.27;54.68
39177;BME280;24904;52.208;21.192;2023-02-23T01:30:19;101017.50;;;1.21;55.01
39177;BME280;24904;52.208;21.192;2023-02-23T01:35:24;101007.61;;;1.18;55.27
39177;BME280;24904;52.208;21.192;2023-02-23T01:40:30;101006.16;;;1.23;55.53
39177;BME280;24904;52.208;21.192;2023-02-23T01:45:38;101005.40;;;1.20;55.58
39177;BME280;24904;52.208;21.192;2023-02-23T01:50:47;100996.23;;;1.16;55.68
39177;BME280;24904;52.208;21.192;2023-02-23T01:55:54;100986.51;;;1.21;56.01
39177;BME280;24904;52.208;21.192;2023-02-23T02:01:01;100978.49;;;1.19;56.08
39177;BME280;24904;52.208;21.192;2023-02-23T02:06:08;100982.59;;;1.13;56.29
39177;BME280;24904;52.208;21.192;2023-02-23T02:11:17;100979.02;;;1.09;56.53
39177;BME280;24904;52.208;21.192;2023-02-23T02:16:43;100981.99;;;1.12;56.90
39177;BME280;24904;52.208;21.192;2023-02-23T02:33:48;100977.70;;;1.08;57.57
39177;BME280;24904;52.208;21.192;2023-02-23T02:47:40;100973.43;;;0.98;58.06
39177;BME280;24904;52.208;21.192;2023-02-23T02:52:48;100967.55;;;0.94;58.30
39177;BME280;24904;52.208;21.192;2023-02-23T02:57:56;100968.85;;;0.94;58.45
39177;BME280;24904;52.208;21.192;2023-02-23T03:03:00;100969.63;;;0.87;58.66
39177;BME280;24904;52.208;21.192;2023-02-23T03:08:27;100971.67;;;0.88;59.17
39177;BME280;24904;52.208;21.192;2023-02-23T03:14:00;100975.04;;;0.90;59.31
39177;BME280;24904;52.208;21.192;2023-02-23T03:19:26;100972.96;;;0.85;59.58
39177;BME280;24904;52.208;21.192;2023-02-23T03:24:53;100975.13;;;0.80;59.73
39177;BME280;24904;52.208;21.192;2023-02-23T03:30:22;100975.52;;;0.74;59.91
39177;BME280;24904;52.208;21.192;2023-02-23T03:35:51;100973.96;;;0.63;60.06
39177;BME280;24904;52.208;21.192;2023-02-23T03:41:20;100971.32;;;0.55;60.32
39177;BME280;24904;52.208;21.192;2023-02-23T03:46:45;100969.51;;;0.43;60.71
39177;BME280;24904;52.208;21.192;2023-02-23T03:52:11;100974.75;;;0.35;61.16
39177;BME280;24904;52.208;21.192;2023-02-23T03:57:35;100976.19;;;0.29;61.37
39177;BME280;24904;52.208;21.192;2023-02-23T04:02:59;100980.08;;;0.25;61.64
39177;BME280;24904;52.208;21.192;2023-02-23T04:08:26;100977.11;;;0.25;62.00
39177;BME280;24904;52.208;21.192;2023-02-23T04:13:53;100984.80;;;0.27;62.19
39177;BME280;24904;52.208;21.192;2023-02-23T04:19:00;100984.02;;;0.25;62.44
39177;BME280;24904;52.208;21.192;2023-02-23T04:24:04;100984.54;;;0.31;62.71
39177;BME280;24904;52.208;21.192;2023-02-23T04:29:08;100984.66;;;0.37;62.83
39177;BME280;24904;52.208;21.192;2023-02-23T04:34:11;100979.73;;;0.41;63.11
39177;BME280;24904;52.208;21.192;2023-02-23T04:39:15;100980.08;;;0.48;63.14
39177;BME280;24904;52.208;21.192;2023-02-23T04:44:18;100970.65;;;0.53;63.32
39177;BME280;24904;52.208;21.192;2023-02-23T04:49:22;100972.93;;;0.56;63.39
39177;BME280;24904;52.208;21.192;2023-02-23T04:54:25;100972.91;;;0.61;63.47
39177;BME280;24904;52.208;21.192;2023-02-23T04:59:28;100972.45;;;0.69;63.41
39177;BME280;24904;52.208;21.192;2023-02-23T05:04:33;100971.14;;;0.74;63.53
39177;BME280;24904;52.208;21.192;2023-02-23T05:09:36;100974.79;;;0.78;63.50
39177;BME280;24904;52.208;21.192;2023-02-23T05:14:39;100973.23;;;0.81;63.53
39177;BME280;24904;52.208;21.192;2023-02-23T05:19:42;100974.21;;;0.84;63.63
39177;BME280;24904;52.208;21.192;2023-02-23T05:24:46;100965.34;;;0.91;63.75
39177;BME280;24904;52.208;21.192;2023-02-23T05:29:49;100969.41;;;0.93;63.64
39177;BME280;24904;52.208;21.192;2023-02-23T05:34:52;100970.98;;;0.96;63.63
39177;BME280;24904;52.208;21.192;2023-02-23T05:39:55;100968.13;;;0.95;63.63
39177;BME280;24904;52.208;21.192;2023-02-23T05:44:59;100968.89;;;0.97;63.70
39177;BME280;24904;52.208;21.192;2023-02-23T05:50:02;100978.38;;;1.01;63.55
39177;BME280;24904;52.208;21.192;2023-02-23T05:55:07;100978.17;;;1.02;63.50
39177;BME280;24904;52.208;21.192;2023-02-23T06:00:13;100983.02;;;1.09;63.34
39177;BME280;24904;52.208;21.192;2023-02-23T06:05:16;100982.92;;;1.11;63.17
39177;BME280;24904;52.208;21.192;2023-02-23T06:10:20;100981.63;;;1.12;62.96
39177;BME280;24904;52.208;21.192;2023-02-23T06:15:23;100981.71;;;1.17;62.98
39177;BME280;24904;52.208;21.192;2023-02-23T06:20:26;100978.41;;;1.23;62.83
39177;BME280;24904;52.208;21.192;2023-02-23T06:25:29;100980.75;;;1.28;62.79
39177;BME280;24904;52.208;21.192;2023-02-23T06:30:32;100983.64;;;1.30;62.74
39177;BME280;24904;52.208;21.192;2023-02-23T06:35:35;100984.19;;;1.30;62.60
39177;BME280;24904;52.208;21.192;2023-02-23T06:40:39;100984.64;;;1.34;62.41
39177;BME280;24904;52.208;21.192;2023-02-23T06:45:42;100987.77;;;1.37;62.27
39177;BME280;24904;52.208;21.192;2023-02-23T06:50:45;100988.05;;;1.37;62.18
39177;BME280;24904;52.208;21.192;2023-02-23T06:55:48;100989.09;;;1.39;62.16
39177;BME280;24904;52.208;21.192;2023-02-23T07:00:53;100988.52;;;1.42;62.06
39177;BME280;24904;52.208;21.192;2023-02-23T07:05:57;100988.83;;;1.38;61.94
39177;BME280;24904;52.208;21.192;2023-02-23T07:11:06;100987.88;;;1.40;62.03
39177;BME280;24904;52.208;21.192;2023-02-23T07:16:10;100983.35;;;1.51;61.83
39177;BME280;24904;52.208;21.192;2023-02-23T07:21:15;100982.34;;;1.56;61.80
39177;BME280;24904;52.208;21.192;2023-02-23T07:26:18;100980.85;;;1.63;61.94
39177;BME280;24904;52.208;21.192;2023-02-23T07:31:22;100979.79;;;1.70;61.44
39177;BME280;24904;52.208;21.192;2023-02-23T07:36:25;100972.86;;;1.83;61.58
39177;BME280;24904;52.208;21.192;2023-02-23T07:41:28;100970.42;;;1.86;61.15
39177;BME280;24904;52.208;21.192;2023-02-23T07:46:31;100970.89;;;1.92;61.12
39177;BME280;24904;52.208;21.192;2023-02-23T07:51:34;100971.14;;;2.01;61.25
39177;BME280;24904;52.208;21.192;2023-02-23T07:56:38;100966.11;;;2.01;60.87
39177;BME280;24904;52.208;21.192;2023-02-23T08:01:41;100959.48;;;2.01;60.71
39177;BME280;24904;52.208;21.192;2023-02-23T08:06:44;100948.90;;;2.07;60.70
39177;BME280;24904;52.208;21.192;2023-02-23T08:11:47;100944.48;;;2.16;60.67
39177;BME280;24904;52.208;21.192;2023-02-23T08:16:50;100941.94;;;2.16;60.21
39177;BME280;24904;52.208;21.192;2023-02-23T08:21:53;100936.38;;;2.18;60.69
39177;BME280;24904;52.208;21.192;2023-02-23T08:26:57;100933.75;;;2.26;60.47
39177;BME280;24904;52.208;21.192;2023-02-23T08:32:02;100930.46;;;2.36;60.38
39177;BME280;24904;52.208;21.192;2023-02-23T08:37:06;100920.92;;;2.48;60.28
39177;BME280;24904;52.208;21.192;2023-02-23T08:42:09;100917.05;;;2.58;59.93
39177;BME280;24904;52.208;21.192;2023-02-23T08:47:14;100912.96;;;2.72;59.82
39177;BME280;24904;52.208;21.192;2023-02-23T08:52:18;100908.05;;;2.86;59.30
39177;BME280;24904;52.208;21.192;2023-02-23T08:57:22;100902.14;;;2.94;59.47
39177;BME280;24904;52.208;21.192;2023-02-23T09:02:26;100897.52;;;3.15;59.11
39177;BME280;24904;52.208;21.192;2023-02-23T09:07:30;100894.98;;;3.38;59.28
39177;BME280;24904;52.208;21.192;2023-02-23T09:12:33;100891.49;;;3.54;58.70
39177;BME280;24904;52.208;21.192;2023-02-23T09:17:38;100888.52;;;3.61;58.80
39177;BME280;24904;52.208;21.192;2023-02-23T09:22:44;100888.05;;;3.71;58.27
39177;BME280;24904;52.208;21.192;2023-02-23T09:27:50;100881.02;;;3.75;58.61
39177;BME280;24904;52.208;21.192;2023-02-23T09:32:54;100873.38;;;3.88;58.37
39177;BME280;24904;52.208;21.192;2023-02-23T09:37:58;100868.08;;;4.05;58.50
39177;BME280;24904;52.208;21.192;2023-02-23T09:43:04;100865.23;;;4.14;57.88
39177;BME280;24904;52.208;21.192;2023-02-23T09:48:12;100857.52;;;4.25;58.26
39177;BME280;24904;52.208;21.192;2023-02-23T09:53:26;100856.02;;;4.50;57.83
39177;BME280;24904;52.208;21.192;2023-02-23T09:58:33;100850.52;;;4.72;57.83
39177;BME280;24904;52.208;21.192;2023-02-23T10:03:39;100847.84;;;4.84;57.34
39177;BME280;24904;52.208;21.192;2023-02-23T10:08:50;100846.02;;;4.93;57.16
39177;BME280;24904;52.208;21.192;2023-02-23T10:14:06;100840.20;;;4.98;57.07
39177;BME280;24904;52.208;21.192;2023-02-23T10:19:16;100839.09;;;5.08;57.15
39177;BME280;24904;52.208;21.192;2023-02-23T10:24:28;100828.52;;;5.19;56.77
39177;BME280;24904;52.208;21.192;2023-02-23T10:29:34;100822.52;;;5.29;56.67
39177;BME280;24904;52.208;21.192;2023-02-23T10:34:39;100811.68;;;5.43;56.61
39177;BME280;24904;52.208;21.192;2023-02-23T10:39:43;100803.38;;;5.49;55.97
39177;BME280;24904;52.208;21.192;2023-02-23T10:44:46;100796.93;;;5.51;56.06
39177;BME280;24904;52.208;21.192;2023-02-23T10:49:50;100788.81;;;5.59;56.11
39177;BME280;24904;52.208;21.192;2023-02-23T10:54:54;100778.23;;;5.59;55.88
39177;BME280;24904;52.208;21.192;2023-02-23T11:00:25;100767.40;;;5.61;55.78
39177;BME280;24904;52.208;21.192;2023-02-23T11:05:46;100763.43;;;5.69;55.54
39177;BME280;24904;52.208;21.192;2023-02-23T11:10:57;100752.23;;;5.67;55.51
39177;BME280;24904;52.208;21.192;2023-02-23T11:16:02;100740.66;;;5.70;55.61
39177;BME280;24904;52.208;21.192;2023-02-23T11:21:21;100732.15;;;5.80;55.76
39177;BME280;24904;52.208;21.192;2023-02-23T11:26:31;100728.05;;;5.88;55.44
39177;BME280;24904;52.208;21.192;2023-02-23T11:31:35;100721.74;;;5.95;55.52
39177;BME280;24904;52.208;21.192;2023-02-23T11:36:39;100714.95;;;6.04;55.24
39177;BME280;24904;52.208;21.192;2023-02-23T11:41:42;100703.24;;;6.08;55.32
39177;BME280;24904;52.208;21.192;2023-02-23T11:47:04;100694.17;;;6.13;55.16
39177;BME280;24904;52.208;21.192;2023-02-23T11:52:15;100688.23;;;6.13;55.11
39177;BME280;24904;52.208;21.192;2023-02-23T11:57:24;100678.25;;;6.10;54.92
39177;BME280;24904;52.208;21.192;2023-02-23T12:02:31;100669.30;;;6.15;55.03
39177;BME280;24904;52.208;21.192;2023-02-23T12:07:42;100658.54;;;6.21;55.12
39177;BME280;24904;52.208;21.192;2023-02-23T12:13:03;100651.96;;;6.28;54.93
39177;BME280;24904;52.208;21.192;2023-02-23T12:18:10;100645.01;;;6.30;54.72
39177;BME280;24904;52.208;21.192;2023-02-23T12:23:20;100634.77;;;6.29;54.77
39177;BME280;24904;52.208;21.192;2023-02-23T12:28:32;100635.48;;;6.29;54.50
39177;BME280;24904;52.208;21.192;2023-02-23T12:33:41;100623.29;;;6.28;54.64
39177;BME280;24904;52.208;21.192;2023-02-23T12:38:53;100618.52;;;6.27;54.50
39177;BME280;24904;52.208;21.192;2023-02-23T12:44:07;100610.14;;;6.26;54.27
39177;BME280;24904;52.208;21.192;2023-02-23T12:49:24;100599.91;;;6.25;54.26
39177;BME280;24904;52.208;21.192;2023-02-23T12:54:33;100594.11;;;6.27;54.41
39177;BME280;24904;52.208;21.192;2023-02-23T13:00:06;100590.32;;;6.35;54.53
39177;BME280;24904;52.208;21.192;2023-02-23T13:05:24;100584.16;;;6.37;54.08
39177;BME280;24904;52.208;21.192;2023-02-23T13:10:38;100578.80;;;6.33;54.15
39177;BME280;24904;52.208;21.192;2023-02-23T13:15:54;100573.45;;;6.31;54.39
39177;BME280;24904;52.208;21.192;2023-02-23T13:21:06;100563.27;;;6.32;54.32
39177;BME280;24904;52.208;21.192;2023-02-23T13:26:22;100556.32;;;6.29;54.39
39177;BME280;24904;52.208;21.192;2023-02-23T13:31:34;100550.09;;;6.29;54.24
39177;BME280;24904;52.208;21.192;2023-02-23T13:36:40;100538.73;;;6.24;54.17
39177;BME280;24904;52.208;21.192;2023-02-23T13:41:51;100535.97;;;6.26;54.40
39177;BME280;24904;52.208;21.192;2023-02-23T13:47:08;100531.59;;;6.31;54.57
39177;BME280;24904;52.208;21.192;2023-02-23T13:52:25;100524.21;;;6.34;54.76
39177;BME280;24904;52.208;21.192;2023-02-23T13:57:33;100519.06;;;6.32;54.49
39177;BME280;24904;52.208;21.192;2023-02-23T14:02:40;100509.74;;;6.22;54.29
39177;BME280;24904;52.208;21.192;2023-02-23T14:07:50;100503.98;;;6.19;54.78
39177;BME280;24904;52.208;21.192;2023-02-23T14:13:23;100496.41;;;6.20;54.88
39177;BME280;24904;52.208;21.192;2023-02-23T14:18:33;100492.73;;;6.20;55.11
39177;BME280;24904;52.208;21.192;2023-02-23T14:23:51;100487.42;;;6.20;54.93
39177;BME280;24904;52.208;21.192;2023-02-23T14:29:10;100483.48;;;6.16;54.88
39177;BME280;24904;52.208;21.192;2023-02-23T14:34:21;100477.95;;;6.14;55.04
39177;BME280;24904;52.208;21.192;2023-02-23T14:39:28;100468.77;;;6.12;55.06
39177;BME280;24904;52.208;21.192;2023-02-23T14:44:36;100462.88;;;6.12;55.35
39177;BME280;24904;52.208;21.192;2023-02-23T14:49:46;100460.38;;;6.15;55.66
39177;BME280;24904;52.208;21.192;2023-02-23T14:55:03;100453.34;;;6.19;55.60
39177;BME280;24904;52.208;21.192;2023-02-23T15:00:17;100449.10;;;6.20;55.60
39177;BME280;24904;52.208;21.192;2023-02-23T15:05:27;100447.63;;;6.18;55.70
39177;BME280;24904;52.208;21.192;2023-02-23T15:10:36;100445.40;;;6.17;55.78
39177;BME280;24904;52.208;21.192;2023-02-23T15:15:44;100443.69;;;6.16;55.88
39177;BME280;24904;52.208;21.192;2023-02-23T15:20:52;100438.35;;;6.15;56.03
39177;BME280;24904;52.208;21.192;2023-02-23T15:25:57;100435.34;;;6.11;55.99
39177;BME280;24904;52.208;21.192;2023-02-23T15:31:04;100423.36;;;6.09;56.06
39177;BME280;24904;52.208;21.192;2023-02-23T15:36:18;100417.79;;;6.02;56.19
39177;BME280;24904;52.208;21.192;2023-02-23T15:41:30;100402.71;;;5.99;56.35
39177;BME280;24904;52.208;21.192;2023-02-23T15:46:35;100392.05;;;5.96;56.56
39177;BME280;24904;52.208;21.192;2023-02-23T15:51:46;100389.01;;;5.92;56.60
39177;BME280;24904;52.208;21.192;2023-02-23T15:56:57;100385.16;;;5.87;56.84
39177;BME280;24904;52.208;21.192;2023-02-23T16:02:10;100381.73;;;5.79;56.83
39177;BME280;24904;52.208;21.192;2023-02-23T16:07:19;100385.59;;;5.73;56.92
39177;BME280;24904;52.208;21.192;2023-02-23T16:12:27;100379.22;;;5.69;56.99
39177;BME280;24904;52.208;21.192;2023-02-23T16:17:41;100372.64;;;5.62;57.08
39177;BME280;24904;52.208;21.192;2023-02-23T16:22:47;100366.41;;;5.54;57.20
39177;BME280;24904;52.208;21.192;2023-02-23T16:28:00;100365.64;;;5.48;57.40
39177;BME280;24904;52.208;21.192;2023-02-23T16:33:12;100363.89;;;5.42;57.81
39177;BME280;24904;52.208;21.192;2023-02-23T16:38:24;100363.63;;;5.28;57.55
39177;BME280;24904;52.208;21.192;2023-02-23T16:43:30;100362.40;;;5.21;57.75
39177;BME280;24904;52.208;21.192;2023-02-23T16:48:38;100357.34;;;5.11;58.12
39177;BME280;24904;52.208;21.192;2023-02-23T16:53:44;100357.21;;;5.00;58.30
39177;BME280;24904;52.208;21.192;2023-02-23T16:58:55;100354.18;;;4.91;58.64
39177;BME280;24904;52.208;21.192;2023-02-23T17:04:02;100350.77;;;4.82;58.86
39177;BME280;24904;52.208;21.192;2023-02-23T17:09:07;100336.85;;;4.73;58.71
39177;BME280;24904;52.208;21.192;2023-02-23T17:17:18;100320.89;;;4.55;58.83
39177;BME280;24904;52.208;21.192;2023-02-23T17:22:24;100323.41;;;4.41;59.22
39177;BME280;24904;52.208;21.192;2023-02-23T17:27:29;100322.84;;;4.27;59.10
39177;BME280;24904;52.208;21.192;2023-02-23T17:32:34;100322.36;;;4.16;59.75
39177;BME280;24904;52.208;21.192;2023-02-23T17:37:40;100315.89;;;4.11;60.00
39177;BME280;24904;52.208;21.192;2023-02-23T17:42:45;100304.58;;;4.05;60.23
39177;BME280;24904;52.208;21.192;2023-02-23T17:51:48;100290.61;;;4.16;60.75
39177;BME280;24904;52.208;21.192;2023-02-23T17:56:51;100278.67;;;4.17;60.77
39177;BME280;24904;52.208;21.192;2023-02-23T18:01:54;100271.32;;;4.17;60.97
39177;BME280;24904;52.208;21.192;2023-02-23T18:06:57;100269.53;;;4.22;61.02
39177;BME280;24904;52.208;21.192;2023-02-23T18:12:01;100257.58;;;4.24;60.86
39177;BME280;24904;52.208;21.192;2023-02-23T18:17:04;100250.48;;;4.27;61.39
39177;BME280;24904;52.208;21.192;2023-02-23T18:22:07;100242.14;;;4.24;61.44
39177;BME280;24904;52.208;21.192;2023-02-23T18:27:10;100238.52;;;4.25;61.56
39177;BME280;24904;52.208;21.192;2023-02-23T18:32:13;100234.81;;;4.28;61.52
39177;BME280;24904;52.208;21.192;2023-02-23T18:37:16;100228.88;;;4.32;61.54
39177;BME280;24904;52.208;21.192;2023-02-23T18:42:25;100221.51;;;4.30;61.50
39177;BME280;24904;52.208;21.192;2023-02-23T18:47:28;100216.77;;;4.27;61.72
39177;BME280;24904;52.208;21.192;2023-02-23T18:52:31;100210.91;;;4.29;61.80
39177;BME280;24904;52.208;21.192;2023-02-23T18:57:36;100201.55;;;4.35;61.83
39177;BME280;24904;52.208;21.192;2023-02-23T19:02:40;100194.98;;;4.37;61.65
39177;BME280;24904;52.208;21.192;2023-02-23T19:07:43;100186.48;;;4.36;61.96
39177;BME280;24904;52.208;21.192;2023-02-23T19:12:46;100181.33;;;4.40;62.04
39177;BME280;24904;52.208;21.192;2023-02-23T19:17:49;100175.98;;;4.43;61.91
39177;BME280;24904;52.208;21.192;2023-02-23T19:22:52;100170.30;;;4.45;62.15
39177;BME280;24904;52.208;21.192;2023-02-23T19:27:55;100160.04;;;4.47;62.31
39177;BME280;24904;52.208;21.192;2023-02-23T19:32:58;100151.04;;;4.50;62.11
39177;BME280;24904;52.208;21.192;2023-02-23T19:38:01;100143.37;;;4.51;62.10
39177;BME280;24904;52.208;21.192;2023-02-23T19:43:04;100136.57;;;4.50;62.05
39177;BME280;24904;52.208;21.192;2023-02-23T19:48:08;100133.45;;;4.49;62.41
39177;BME280;24904;52.208;21.192;2023-02-23T19:53:11;100126.23;;;4.47;62.42
39177;BME280;24904;52.208;21.192;2023-02-23T19:58:14;100121.75;;;4.48;62.61
39177;BME280;24904;52.208;21.192;2023-02-23T20:09:39;100103.09;;;4.44;62.51
39177;BME280;24904;52.208;21.192;2023-02-23T20:15:07;100095.45;;;4.41;62.58
39177;BME280;24904;52.208;21.192;2023-02-23T20:20:12;100089.72;;;4.36;62.62
39177;BME280;24904;52.208;21.192;2023-02-23T20:25:17;100082.92;;;4.33;62.87
39177;BME280;24904;52.208;21.192;2023-02-23T20:30:22;100073.27;;;4.30;63.13
39177;BME280;24904;52.208;21.192;2023-02-23T20:35:25;100070.07;;;4.26;63.06
39177;BME280;24904;52.208;21.192;2023-02-23T20:40:28;100063.67;;;4.26;63.34
39177;BME280;24904;52.208;21.192;2023-02-23T20:45:32;100059.62;;;4.23;63.42
39177;BME280;24904;52.208;21.192;2023-02-23T20:50:35;100046.20;;;4.23;63.43
39177;BME280;24904;52.208;21.192;2023-02-23T20:55:38;100040.34;;;4.20;63.73
39177;BME280;24904;52.208;21.192;2023-02-23T21:00:42;100030.16;;;4.14;63.70
39177;BME280;24904;52.208;21.192;2023-02-23T21:05:45;100020.48;;;4.10;63.76
39177;BME280;24904;52.208;21.192;2023-02-23T21:10:49;100014.16;;;4.06;63.74
39177;BME280;24904;52.208;21.192;2023-02-23T21:15:56;100009.61;;;4.00;63.80
39177;BME280;24904;52.208;21.192;2023-02-23T21:21:02;100000.21;;;3.97;63.97
39177;BME280;24904;52.208;21.192;2023-02-23T21:26:11;99995.29;;;3.94;64.39
39177;BME280;24904;52.208;21.192;2023-02-23T21:31:15;99989.10;;;3.96;64.65
39177;BME280;24904;52.208;21.192;2023-02-23T21:36:18;99982.65;;;3.96;64.45
39177;BME280;24904;52.208;21.192;2023-02-23T21:41:21;99975.96;;;3.94;64.59
39177;BME280;24904;52.208;21.192;2023-02-23T21:46:24;99965.25;;;3.89;64.89
39177;BME280;24904;52.208;21.192;2023-02-23T21:51:27;99955.27;;;3.87;64.87
39177;BME280;24904;52.208;21.192;2023-02-23T21:56:37;99949.17;;;3.83;64.98
39177;BME280;24904;52.208;21.192;2023-02-23T22:01:40;99942.55;;;3.77;64.93
39177;BME280;24904;52.208;21.192;2023-02-23T22:06:44;99935.81;;;3.70;65.35
39177;BME280;24904;52.208;21.192;2023-02-23T22:11:47;99922.29;;;3.69;65.43
39177;BME280;24904;52.208;21.192;2023-02-23T22:16:50;99908.62;;;3.68;65.68
39177;BME280;24904;52.208;21.192;2023-02-23T22:21:53;99898.75;;;3.68;65.40
39177;BME280;24904;52.208;21.192;2023-02-23T22:26:56;99895.30;;;3.65;65.68
39177;BME280;24904;52.208;21.192;2023-02-23T22:32:02;99886.48;;;3.63;65.82
39177;BME280;24904;52.208;21.192;2023-02-23T22:37:05;99878.30;;;3.61;66.03
39177;BME280;24904;52.208;21.192;2023-02-23T22:42:08;99881.60;;;3.61;66.03
39177;BME280;24904;52.208;21.192;2023-02-23T22:47:13;99873.69;;;3.58;66.50
39177;BME280;24904;52.208;21.192;2023-02-23T22:52:16;99865.15;;;3.55;66.49
39177;BME280;24904;52.208;21.192;2023-02-23T22:57:20;99856.55;;;3.55;66.56
39177;BME280;24904;52.208;21.192;2023-02-23T23:02:23;99856.72;;;3.58;66.69
39177;BME280;24904;52.208;21.192;2023-02-23T23:07:26;99841.52;;;3.58;66.72
39177;BME280;24904;52.208;21.192;2023-02-23T23:12:29;99832.52;;;3.64;66.93
39177;BME280;24904;52.208;21.192;2023-02-23T23:17:33;99823.95;;;3.67;66.97
39177;BME280;24904;52.208;21.192;2023-02-23T23:22:36;99814.00;;;3.69;66.96
39177;BME280;24904;52.208;21.192;2023-02-23T23:27:40;99808.54;;;3.71;67.35
39177;BME280;24904;52.208;21.192;2023-02-23T23:32:43;99803.23;;;3.70;67.07
39177;BME280;24904;52.208;21.192;2023-02-23T23:37:47;99804.05;;;3.71;67.22
39177;BME280;24904;52.208;21.192;2023-02-23T23:42:52;99800.20;;;3.72;67.31
39177;BME280;24904;52.208;21.192;2023-02-23T23:47:57;99786.56;;;3.76;67.53
39177;BME280;24904;52.208;21.192;2023-02-23T23:53:00;99780.39;;;3.79;67.76
39177;BME280;24904;52.208;21.192;2023-02-23T23:58:03;99773.14;;;3.80;67.60
